Аэропорт: Стригино. Нижний Новгород

ICAO: UWGG

METAR:
2020-10-19 15:30:00
UWGG 191530Z 20004MPS 9999 BKN030 04/03 Q1011 R18L/190060 NOSIG
METAR:
2020-10-19 13:53:00
TAF UWGG 191353Z 1915/2015 23005G12MPS 6000 BKN015 TX05/2012Z TN01/2001Z TEMPO 1915/2006 -SHRA BKN007CB TEMPO 2006/2015 26010G15MPS 3100 -SHRASN BKN010CB